sensor_id;sensor_type;location;lat;lon;timestamp;P1;durP1;ratioP1;P2;durP2;ratioP2
64520;SDS011;50896;46.714;17.322;2022-12-19T00:01:33;45.28;;;21.05;;
64520;SDS011;50896;46.714;17.322;2022-12-19T00:04:04;42.47;;;20.75;;
64520;SDS011;50896;46.714;17.322;2022-12-19T00:06:35;46.28;;;20.95;;
64520;SDS011;50896;46.714;17.322;2022-12-19T00:09:09;45.45;;;21.60;;
64520;SDS011;50896;46.714;17.322;2022-12-19T00:11:37;48.13;;;23.17;;
64520;SDS011;50896;46.714;17.322;2022-12-19T00:14:05;52.42;;;23.75;;
64520;SDS011;50896;46.714;17.322;2022-12-19T00:16:32;42.28;;;22.27;;
64520;SDS011;50896;46.714;17.322;2022-12-19T00:19:00;46.70;;;22.65;;
64520;SDS011;50896;46.714;17.322;2022-12-19T00:21:28;50.00;;;23.20;;
64520;SDS011;50896;46.714;17.322;2022-12-19T00:24:00;49.22;;;22.27;;
64520;SDS011;50896;46.714;17.322;2022-12-19T00:26:46;46.20;;;22.98;;
64520;SDS011;50896;46.714;17.322;2022-12-19T00:29:13;48.53;;;24.85;;
64520;SDS011;50896;46.714;17.322;2022-12-19T00:31:40;61.95;;;28.35;;
64520;SDS011;50896;46.714;17.322;2022-12-19T00:34:07;68.10;;;29.38;;
64520;SDS011;50896;46.714;17.322;2022-12-19T00:36:34;68.70;;;31.25;;
64520;SDS011;50896;46.714;17.322;2022-12-19T00:39:02;63.80;;;30.20;;
64520;SDS011;50896;46.714;17.322;2022-12-19T00:41:34;68.32;;;30.45;;
64520;SDS011;50896;46.714;17.322;2022-12-19T00:44:09;71.85;;;30.55;;
64520;SDS011;50896;46.714;17.322;2022-12-19T00:46:37;71.75;;;28.38;;
64520;SDS011;50896;46.714;17.322;2022-12-19T00:49:04;63.95;;;28.75;;
64520;SDS011;50896;46.714;17.322;2022-12-19T00:51:32;68.93;;;27.77;;
64520;SDS011;50896;46.714;17.322;2022-12-19T00:54:00;66.40;;;27.15;;
64520;SDS011;50896;46.714;17.322;2022-12-19T00:56:31;67.30;;;27.23;;
64520;SDS011;50896;46.714;17.322;2022-12-19T00:59:05;61.38;;;23.80;;
64520;SDS011;50896;46.714;17.322;2022-12-19T01:01:33;70.72;;;25.45;;
64520;SDS011;50896;46.714;17.322;2022-12-19T01:04:03;64.38;;;25.10;;
64520;SDS011;50896;46.714;17.322;2022-12-19T01:06:51;59.63;;;23.80;;
64520;SDS011;50896;46.714;17.322;2022-12-19T01:09:18;66.72;;;24.23;;
64520;SDS011;50896;46.714;17.322;2022-12-19T01:11:47;66.18;;;23.20;;
64520;SDS011;50896;46.714;17.322;2022-12-19T01:14:33;62.70;;;24.30;;
64520;SDS011;50896;46.714;17.322;2022-12-19T01:17:01;71.78;;;25.80;;
64520;SDS011;50896;46.714;17.322;2022-12-19T01:19:27;75.47;;;25.20;;
64520;SDS011;50896;46.714;17.322;2022-12-19T01:21:54;66.82;;;24.73;;
64520;SDS011;50896;46.714;17.322;2022-12-19T01:24:21;79.40;;;26.35;;
64520;SDS011;50896;46.714;17.322;2022-12-19T01:26:48;68.57;;;24.20;;
64520;SDS011;50896;46.714;17.322;2022-12-19T01:29:15;63.83;;;24.92;;
64520;SDS011;50896;46.714;17.322;2022-12-19T01:31:41;65.57;;;23.23;;
64520;SDS011;50896;46.714;17.322;2022-12-19T01:34:08;76.38;;;25.95;;
64520;SDS011;50896;46.714;17.322;2022-12-19T01:36:35;74.63;;;25.27;;
64520;SDS011;50896;46.714;17.322;2022-12-19T01:39:05;70.18;;;25.15;;
64520;SDS011;50896;46.714;17.322;2022-12-19T01:41:32;71.60;;;25.80;;
64520;SDS011;50896;46.714;17.322;2022-12-19T01:44:03;68.15;;;24.23;;
64520;SDS011;50896;46.714;17.322;2022-12-19T01:49:01;67.22;;;23.77;;
64520;SDS011;50896;46.714;17.322;2022-12-19T01:51:33;64.93;;;24.03;;
64520;SDS011;50896;46.714;17.322;2022-12-19T01:54:07;74.35;;;24.55;;
64520;SDS011;50896;46.714;17.322;2022-12-19T01:56:38;71.85;;;23.95;;
64520;SDS011;50896;46.714;17.322;2022-12-19T01:59:09;78.28;;;26.67;;
64520;SDS011;50896;46.714;17.322;2022-12-19T02:01:40;69.63;;;24.58;;
64520;SDS011;50896;46.714;17.322;2022-12-19T02:04:20;68.32;;;24.83;;
64520;SDS011;50896;46.714;17.322;2022-12-19T02:06:51;66.18;;;23.10;;
64520;SDS011;50896;46.714;17.322;2022-12-19T02:09:23;60.85;;;22.90;;
64520;SDS011;50896;46.714;17.322;2022-12-19T02:11:50;61.88;;;22.52;;
64520;SDS011;50896;46.714;17.322;2022-12-19T02:14:18;69.78;;;24.90;;
64520;SDS011;50896;46.714;17.322;2022-12-19T02:30:54;57.35;;;20.92;;
64520;SDS011;50896;46.714;17.322;2022-12-19T02:36:07;56.67;;;22.10;;
64520;SDS011;50896;46.714;17.322;2022-12-19T02:41:23;56.65;;;22.08;;
64520;SDS011;50896;46.714;17.322;2022-12-19T02:43:58;56.35;;;20.98;;
64520;SDS011;50896;46.714;17.322;2022-12-19T02:46:28;52.45;;;20.55;;
64520;SDS011;50896;46.714;17.322;2022-12-19T02:48:55;57.05;;;22.50;;
64520;SDS011;50896;46.714;17.322;2022-12-19T02:51:22;55.60;;;20.95;;
64520;SDS011;50896;46.714;17.322;2022-12-19T02:53:49;55.00;;;20.95;;
64520;SDS011;50896;46.714;17.322;2022-12-19T02:56:19;49.70;;;19.45;;
64520;SDS011;50896;46.714;17.322;2022-12-19T03:01:54;49.60;;;19.40;;
64520;SDS011;50896;46.714;17.322;2022-12-19T03:12:37;57.30;;;22.95;;
64520;SDS011;50896;46.714;17.322;2022-12-19T03:15:14;54.55;;;21.70;;
64520;SDS011;50896;46.714;17.322;2022-12-19T03:17:41;63.10;;;22.77;;
64520;SDS011;50896;46.714;17.322;2022-12-19T03:20:24;53.25;;;21.52;;
64520;SDS011;50896;46.714;17.322;2022-12-19T03:23:02;51.35;;;19.88;;
64520;SDS011;50896;46.714;17.322;2022-12-19T03:25:29;56.90;;;22.10;;
64520;SDS011;50896;46.714;17.322;2022-12-19T03:27:58;53.35;;;23.25;;
64520;SDS011;50896;46.714;17.322;2022-12-19T03:30:32;58.08;;;22.40;;
64520;SDS011;50896;46.714;17.322;2022-12-19T03:33:00;55.65;;;21.45;;
64520;SDS011;50896;46.714;17.322;2022-12-19T03:35:28;52.20;;;20.92;;
64520;SDS011;50896;46.714;17.322;2022-12-19T03:37:57;54.97;;;21.08;;
64520;SDS011;50896;46.714;17.322;2022-12-19T03:40:30;55.80;;;20.77;;
64520;SDS011;50896;46.714;17.322;2022-12-19T03:43:01;55.50;;;20.95;;
64520;SDS011;50896;46.714;17.322;2022-12-19T03:48:31;54.30;;;21.13;;
64520;SDS011;50896;46.714;17.322;2022-12-19T03:53:55;54.45;;;20.80;;
64520;SDS011;50896;46.714;17.322;2022-12-19T03:59:10;55.05;;;21.75;;
64520;SDS011;50896;46.714;17.322;2022-12-19T04:01:41;56.00;;;21.90;;
64520;SDS011;50896;46.714;17.322;2022-12-19T04:04:09;52.38;;;21.42;;
64520;SDS011;50896;46.714;17.322;2022-12-19T04:06:38;53.70;;;21.48;;
64520;SDS011;50896;46.714;17.322;2022-12-19T04:09:08;57.25;;;22.10;;
64520;SDS011;50896;46.714;17.322;2022-12-19T04:11:37;54.28;;;22.10;;
64520;SDS011;50896;46.714;17.322;2022-12-19T04:14:08;56.88;;;22.10;;
64520;SDS011;50896;46.714;17.322;2022-12-19T04:16:53;52.17;;;21.35;;
64520;SDS011;50896;46.714;17.322;2022-12-19T04:22:08;58.38;;;23.08;;
64520;SDS011;50896;46.714;17.322;2022-12-19T04:24:39;55.67;;;20.77;;
64520;SDS011;50896;46.714;17.322;2022-12-19T04:27:09;55.17;;;21.75;;
64520;SDS011;50896;46.714;17.322;2022-12-19T04:29:38;49.90;;;21.20;;
64520;SDS011;50896;46.714;17.322;2022-12-19T04:32:07;50.22;;;21.40;;
64520;SDS011;50896;46.714;17.322;2022-12-19T04:34:35;54.97;;;20.48;;
64520;SDS011;50896;46.714;17.322;2022-12-19T04:37:08;51.85;;;21.60;;
64520;SDS011;50896;46.714;17.322;2022-12-19T04:39:36;51.70;;;21.05;;
64520;SDS011;50896;46.714;17.322;2022-12-19T04:42:03;54.20;;;21.60;;
64520;SDS011;50896;46.714;17.322;2022-12-19T04:44:29;54.30;;;22.58;;
64520;SDS011;50896;46.714;17.322;2022-12-19T04:46:56;54.47;;;21.90;;
64520;SDS011;50896;46.714;17.322;2022-12-19T04:49:23;56.50;;;20.98;;
64520;SDS011;50896;46.714;17.322;2022-12-19T04:51:50;59.92;;;21.45;;
64520;SDS011;50896;46.714;17.322;2022-12-19T04:54:16;56.85;;;21.88;;
64520;SDS011;50896;46.714;17.322;2022-12-19T04:56:43;53.88;;;21.67;;
64520;SDS011;50896;46.714;17.322;2022-12-19T04:59:10;53.03;;;21.92;;
64520;SDS011;50896;46.714;17.322;2022-12-19T05:01:37;60.92;;;22.92;;
64520;SDS011;50896;46.714;17.322;2022-12-19T05:04:03;53.42;;;20.30;;
64520;SDS011;50896;46.714;17.322;2022-12-19T05:06:30;49.95;;;21.73;;
64520;SDS011;50896;46.714;17.322;2022-12-19T05:08:57;60.33;;;23.08;;
64520;SDS011;50896;46.714;17.322;2022-12-19T05:11:24;53.72;;;22.20;;
64520;SDS011;50896;46.714;17.322;2022-12-19T05:13:51;55.25;;;22.50;;
64520;SDS011;50896;46.714;17.322;2022-12-19T05:16:17;59.80;;;23.13;;
64520;SDS011;50896;46.714;17.322;2022-12-19T05:18:44;60.20;;;23.45;;
64520;SDS011;50896;46.714;17.322;2022-12-19T05:21:11;57.53;;;22.10;;
64520;SDS011;50896;46.714;17.322;2022-12-19T05:23:38;56.92;;;23.33;;
64520;SDS011;50896;46.714;17.322;2022-12-19T05:26:05;52.83;;;21.65;;
64520;SDS011;50896;46.714;17.322;2022-12-19T05:28:32;56.08;;;22.17;;
64520;SDS011;50896;46.714;17.322;2022-12-19T05:31:19;58.05;;;23.10;;
64520;SDS011;50896;46.714;17.322;2022-12-19T05:33:46;55.13;;;22.35;;
64520;SDS011;50896;46.714;17.322;2022-12-19T05:36:14;58.72;;;22.58;;
64520;SDS011;50896;46.714;17.322;2022-12-19T05:38:42;58.28;;;23.25;;
64520;SDS011;50896;46.714;17.322;2022-12-19T05:41:10;53.30;;;22.23;;
64520;SDS011;50896;46.714;17.322;2022-12-19T05:43:41;62.33;;;24.30;;
64520;SDS011;50896;46.714;17.322;2022-12-19T05:46:08;59.78;;;24.60;;
64520;SDS011;50896;46.714;17.322;2022-12-19T05:48:35;67.35;;;24.75;;
64520;SDS011;50896;46.714;17.322;2022-12-19T05:51:02;65.05;;;26.02;;
64520;SDS011;50896;46.714;17.322;2022-12-19T05:53:29;57.35;;;23.92;;
64520;SDS011;50896;46.714;17.322;2022-12-19T05:56:03;63.08;;;25.42;;
64520;SDS011;50896;46.714;17.322;2022-12-19T05:58:34;66.65;;;25.80;;
64520;SDS011;50896;46.714;17.322;2022-12-19T06:01:06;58.42;;;24.63;;
64520;SDS011;50896;46.714;17.322;2022-12-19T06:03:35;66.43;;;25.73;;
64520;SDS011;50896;46.714;17.322;2022-12-19T06:06:02;62.40;;;25.85;;
64520;SDS011;50896;46.714;17.322;2022-12-19T06:08:34;61.85;;;25.05;;
64520;SDS011;50896;46.714;17.322;2022-12-19T06:11:01;59.13;;;24.13;;
64520;SDS011;50896;46.714;17.322;2022-12-19T06:13:30;65.93;;;25.80;;
64520;SDS011;50896;46.714;17.322;2022-12-19T06:18:29;60.05;;;23.92;;
64520;SDS011;50896;46.714;17.322;2022-12-19T06:20:57;60.92;;;24.92;;
64520;SDS011;50896;46.714;17.322;2022-12-19T06:23:25;68.03;;;26.50;;
64520;SDS011;50896;46.714;17.322;2022-12-19T06:25:54;59.53;;;24.23;;
64520;SDS011;50896;46.714;17.322;2022-12-19T06:28:23;63.15;;;24.60;;
64520;SDS011;50896;46.714;17.322;2022-12-19T06:30:50;65.07;;;24.50;;
64520;SDS011;50896;46.714;17.322;2022-12-19T06:33:17;63.70;;;24.80;;
64520;SDS011;50896;46.714;17.322;2022-12-19T06:35:44;64.30;;;26.40;;
64520;SDS011;50896;46.714;17.322;2022-12-19T06:38:11;66.35;;;24.75;;
64520;SDS011;50896;46.714;17.322;2022-12-19T06:40:41;63.78;;;24.85;;
64520;SDS011;50896;46.714;17.322;2022-12-19T06:43:27;71.03;;;27.10;;
64520;SDS011;50896;46.714;17.322;2022-12-19T06:45:55;63.28;;;23.83;;
64520;SDS011;50896;46.714;17.322;2022-12-19T06:48:23;70.63;;;26.87;;
64520;SDS011;50896;46.714;17.322;2022-12-19T06:50:52;64.03;;;26.58;;
64520;SDS011;50896;46.714;17.322;2022-12-19T06:53:19;66.00;;;27.48;;
64520;SDS011;50896;46.714;17.322;2022-12-19T06:55:47;78.63;;;28.63;;
64520;SDS011;50896;46.714;17.322;2022-12-19T06:58:16;69.88;;;27.55;;
64520;SDS011;50896;46.714;17.322;2022-12-19T07:00:49;74.95;;;28.55;;
64520;SDS011;50896;46.714;17.322;2022-12-19T07:03:18;68.07;;;26.48;;
64520;SDS011;50896;46.714;17.322;2022-12-19T07:05:48;74.90;;;27.33;;
64520;SDS011;50896;46.714;17.322;2022-12-19T07:08:15;68.72;;;26.83;;
64520;SDS011;50896;46.714;17.322;2022-12-19T07:10:42;70.38;;;27.33;;
64520;SDS011;50896;46.714;17.322;2022-12-19T07:13:09;76.28;;;28.90;;
64520;SDS011;50896;46.714;17.322;2022-12-19T07:15:35;67.57;;;27.63;;
64520;SDS011;50896;46.714;17.322;2022-12-19T07:18:03;72.50;;;27.75;;
64520;SDS011;50896;46.714;17.322;2022-12-19T07:20:33;75.60;;;29.90;;
64520;SDS011;50896;46.714;17.322;2022-12-19T07:23:09;72.40;;;27.95;;
64520;SDS011;50896;46.714;17.322;2022-12-19T07:25:39;69.47;;;27.52;;
64520;SDS011;50896;46.714;17.322;2022-12-19T07:28:07;76.25;;;27.73;;
64520;SDS011;50896;46.714;17.322;2022-12-19T07:30:34;68.57;;;26.48;;
64520;SDS011;50896;46.714;17.322;2022-12-19T07:33:01;72.43;;;28.10;;
64520;SDS011;50896;46.714;17.322;2022-12-19T07:35:28;81.82;;;30.58;;
64520;SDS011;50896;46.714;17.322;2022-12-19T07:37:59;75.10;;;29.50;;
64520;SDS011;50896;46.714;17.322;2022-12-19T07:40:30;77.05;;;28.35;;
64520;SDS011;50896;46.714;17.322;2022-12-19T07:43:04;81.18;;;28.40;;
64520;SDS011;50896;46.714;17.322;2022-12-19T07:45:31;80.15;;;29.00;;
64520;SDS011;50896;46.714;17.322;2022-12-19T07:48:00;71.45;;;27.23;;
64520;SDS011;50896;46.714;17.322;2022-12-19T07:50:28;74.50;;;28.55;;
64520;SDS011;50896;46.714;17.322;2022-12-19T07:52:56;79.90;;;29.75;;
64520;SDS011;50896;46.714;17.322;2022-12-19T07:55:24;73.65;;;27.80;;
64520;SDS011;50896;46.714;17.322;2022-12-19T07:57:51;68.07;;;27.35;;
64520;SDS011;50896;46.714;17.322;2022-12-19T08:00:19;71.28;;;27.33;;
64520;SDS011;50896;46.714;17.322;2022-12-19T08:02:45;73.45;;;28.42;;
64520;SDS011;50896;46.714;17.322;2022-12-19T08:05:13;68.32;;;27.85;;
64520;SDS011;50896;46.714;17.322;2022-12-19T08:07:39;67.88;;;27.58;;
64520;SDS011;50896;46.714;17.322;2022-12-19T08:10:06;74.93;;;30.75;;
64520;SDS011;50896;46.714;17.322;2022-12-19T08:12:34;74.05;;;29.17;;
64520;SDS011;50896;46.714;17.322;2022-12-19T08:15:00;78.38;;;29.98;;
64520;SDS011;50896;46.714;17.322;2022-12-19T08:17:27;66.80;;;27.83;;
64520;SDS011;50896;46.714;17.322;2022-12-19T08:19:54;81.45;;;31.98;;
64520;SDS011;50896;46.714;17.322;2022-12-19T08:22:21;73.75;;;29.45;;
64520;SDS011;50896;46.714;17.322;2022-12-19T08:24:48;77.13;;;29.38;;
64520;SDS011;50896;46.714;17.322;2022-12-19T08:27:15;78.47;;;29.48;;
64520;SDS011;50896;46.714;17.322;2022-12-19T08:29:42;80.82;;;31.10;;
64520;SDS011;50896;46.714;17.322;2022-12-19T08:32:09;75.35;;;29.33;;
64520;SDS011;50896;46.714;17.322;2022-12-19T08:34:42;83.35;;;29.98;;
64520;SDS011;50896;46.714;17.322;2022-12-19T08:37:09;70.18;;;28.70;;
64520;SDS011;50896;46.714;17.322;2022-12-19T08:39:36;75.35;;;29.40;;
64520;SDS011;50896;46.714;17.322;2022-12-19T08:42:03;71.53;;;29.55;;
64520;SDS011;50896;46.714;17.322;2022-12-19T08:44:30;69.80;;;30.25;;
64520;SDS011;50896;46.714;17.322;2022-12-19T08:46:56;71.88;;;29.42;;
64520;SDS011;50896;46.714;17.322;2022-12-19T08:49:23;73.63;;;30.58;;
64520;SDS011;50896;46.714;17.322;2022-12-19T08:51:50;70.70;;;30.25;;
64520;SDS011;50896;46.714;17.322;2022-12-19T08:54:17;74.07;;;30.27;;
64520;SDS011;50896;46.714;17.322;2022-12-19T08:56:44;73.50;;;28.88;;
64520;SDS011;50896;46.714;17.322;2022-12-19T08:59:12;71.57;;;28.52;;
64520;SDS011;50896;46.714;17.322;2022-12-19T09:01:56;66.50;;;27.67;;
64520;SDS011;50896;46.714;17.322;2022-12-19T09:04:22;78.10;;;29.70;;
64520;SDS011;50896;46.714;17.322;2022-12-19T09:07:09;69.53;;;28.05;;
64520;SDS011;50896;46.714;17.322;2022-12-19T09:09:40;65.28;;;28.20;;
64520;SDS011;50896;46.714;17.322;2022-12-19T09:12:07;68.15;;;27.63;;
64520;SDS011;50896;46.714;17.322;2022-12-19T09:14:34;71.13;;;27.45;;
64520;SDS011;50896;46.714;17.322;2022-12-19T09:17:01;68.55;;;25.77;;
64520;SDS011;50896;46.714;17.322;2022-12-19T09:19:30;59.30;;;24.43;;
64520;SDS011;50896;46.714;17.322;2022-12-19T09:21:57;66.55;;;25.30;;
64520;SDS011;50896;46.714;17.322;2022-12-19T09:24:24;51.92;;;21.42;;
64520;SDS011;50896;46.714;17.322;2022-12-19T09:26:51;54.70;;;23.38;;
64520;SDS011;50896;46.714;17.322;2022-12-19T09:29:18;55.80;;;22.40;;
64520;SDS011;50896;46.714;17.322;2022-12-19T09:31:47;48.95;;;21.20;;
64520;SDS011;50896;46.714;17.322;2022-12-19T09:34:24;57.28;;;21.35;;
64520;SDS011;50896;46.714;17.322;2022-12-19T09:37:07;54.65;;;22.05;;
64520;SDS011;50896;46.714;17.322;2022-12-19T09:39:45;50.33;;;21.30;;
64520;SDS011;50896;46.714;17.322;2022-12-19T09:45:03;55.28;;;24.13;;
64520;SDS011;50896;46.714;17.322;2022-12-19T09:47:56;63.35;;;25.45;;
64520;SDS011;50896;46.714;17.322;2022-12-19T09:56:20;53.50;;;23.05;;
64520;SDS011;50896;46.714;17.322;2022-12-19T09:58:50;58.05;;;25.63;;
64520;SDS011;50896;46.714;17.322;2022-12-19T10:01:25;52.25;;;23.45;;
64520;SDS011;50896;46.714;17.322;2022-12-19T10:04:21;56.05;;;24.00;;
64520;SDS011;50896;46.714;17.322;2022-12-19T10:06:44;56.97;;;25.02;;
64520;SDS011;50896;46.714;17.322;2022-12-19T10:09:32;64.72;;;26.00;;
64520;SDS011;50896;46.714;17.322;2022-12-19T10:18:09;58.40;;;24.42;;
64520;SDS011;50896;46.714;17.322;2022-12-19T10:21:00;59.03;;;24.38;;
64520;SDS011;50896;46.714;17.322;2022-12-19T10:34:04;55.60;;;23.27;;
64520;SDS011;50896;46.714;17.322;2022-12-19T10:36:44;56.88;;;24.48;;
64520;SDS011;50896;46.714;17.322;2022-12-19T10:39:33;54.88;;;23.30;;
64520;SDS011;50896;46.714;17.322;2022-12-19T10:42:33;59.63;;;25.23;;
64520;SDS011;50896;46.714;17.322;2022-12-19T10:45:15;54.78;;;22.90;;
64520;SDS011;50896;46.714;17.322;2022-12-19T10:47:54;55.17;;;23.00;;
64520;SDS011;50896;46.714;17.322;2022-12-19T10:50:24;54.25;;;23.02;;
64520;SDS011;50896;46.714;17.322;2022-12-19T10:55:38;51.30;;;22.15;;
64520;SDS011;50896;46.714;17.322;2022-12-19T10:58:18;46.45;;;21.67;;
64520;SDS011;50896;46.714;17.322;2022-12-19T11:00:58;51.85;;;22.33;;
64520;SDS011;50896;46.714;17.322;2022-12-19T11:03:36;51.90;;;22.17;;
64520;SDS011;50896;46.714;17.322;2022-12-19T11:06:04;47.90;;;21.35;;
64520;SDS011;50896;46.714;17.322;2022-12-19T11:08:33;42.55;;;19.70;;
64520;SDS011;50896;46.714;17.322;2022-12-19T11:13:51;38.28;;;18.02;;
64520;SDS011;50896;46.714;17.322;2022-12-19T11:16:37;39.17;;;17.48;;
64520;SDS011;50896;46.714;17.322;2022-12-19T11:22:21;40.35;;;17.92;;
64520;SDS011;50896;46.714;17.322;2022-12-19T11:25:17;40.20;;;18.90;;
64520;SDS011;50896;46.714;17.322;2022-12-19T11:28:25;39.65;;;17.42;;
64520;SDS011;50896;46.714;17.322;2022-12-19T11:31:22;37.97;;;17.48;;
64520;SDS011;50896;46.714;17.322;2022-12-19T11:34:15;38.40;;;17.15;;
64520;SDS011;50896;46.714;17.322;2022-12-19T11:37:02;38.05;;;16.83;;
64520;SDS011;50896;46.714;17.322;2022-12-19T11:42:49;36.42;;;17.33;;
64520;SDS011;50896;46.714;17.322;2022-12-19T11:45:49;38.30;;;17.23;;
64520;SDS011;50896;46.714;17.322;2022-12-19T11:51:00;40.25;;;17.55;;
64520;SDS011;50896;46.714;17.322;2022-12-19T11:53:32;38.33;;;17.85;;
64520;SDS011;50896;46.714;17.322;2022-12-19T11:56:13;42.15;;;18.73;;
64520;SDS011;50896;46.714;17.322;2022-12-19T11:58:46;41.20;;;17.77;;
64520;SDS011;50896;46.714;17.322;2022-12-19T12:01:19;43.92;;;17.92;;
64520;SDS011;50896;46.714;17.322;2022-12-19T12:06:46;41.05;;;17.80;;
64520;SDS011;50896;46.714;17.322;2022-12-19T12:12:21;45.13;;;17.48;;
64520;SDS011;50896;46.714;17.322;2022-12-19T12:21:21;38.95;;;17.50;;
64520;SDS011;50896;46.714;17.322;2022-12-19T12:24:19;43.13;;;17.98;;
64520;SDS011;50896;46.714;17.322;2022-12-19T12:30:20;43.27;;;18.87;;
64520;SDS011;50896;46.714;17.322;2022-12-19T12:36:03;42.47;;;17.73;;
64520;SDS011;50896;46.714;17.322;2022-12-19T12:39:04;42.83;;;18.05;;
64520;SDS011;50896;46.714;17.322;2022-12-19T12:44:40;41.78;;;18.38;;
64520;SDS011;50896;46.714;17.322;2022-12-19T12:47:14;40.20;;;18.50;;
64520;SDS011;50896;46.714;17.322;2022-12-19T12:52:26;42.05;;;18.80;;
64520;SDS011;50896;46.714;17.322;2022-12-19T12:54:58;41.42;;;18.52;;
64520;SDS011;50896;46.714;17.322;2022-12-19T13:03:12;47.75;;;19.45;;
64520;SDS011;50896;46.714;17.322;2022-12-19T13:10:58;44.03;;;19.15;;
64520;SDS011;50896;46.714;17.322;2022-12-19T13:19:15;44.63;;;19.40;;
64520;SDS011;50896;46.714;17.322;2022-12-19T13:24:47;47.42;;;19.90;;
64520;SDS011;50896;46.714;17.322;2022-12-19T13:38:18;41.97;;;19.30;;
64520;SDS011;50896;46.714;17.322;2022-12-19T13:41:29;40.75;;;18.80;;
64520;SDS011;50896;46.714;17.322;2022-12-19T13:44:24;37.90;;;18.13;;
64520;SDS011;50896;46.714;17.322;2022-12-19T13:46:51;48.47;;;19.90;;
64520;SDS011;50896;46.714;17.322;2022-12-19T13:49:27;48.22;;;20.65;;
64520;SDS011;50896;46.714;17.322;2022-12-19T13:52:03;47.03;;;19.93;;
64520;SDS011;50896;46.714;17.322;2022-12-19T13:54:32;43.85;;;19.73;;
64520;SDS011;50896;46.714;17.322;2022-12-19T13:57:17;46.38;;;20.25;;
64520;SDS011;50896;46.714;17.322;2022-12-19T13:59:47;42.30;;;19.52;;
64520;SDS011;50896;46.714;17.322;2022-12-19T14:02:33;46.33;;;20.55;;
64520;SDS011;50896;46.714;17.322;2022-12-19T14:08:28;43.47;;;19.08;;
64520;SDS011;50896;46.714;17.322;2022-12-19T14:10:55;44.08;;;19.17;;
64520;SDS011;50896;46.714;17.322;2022-12-19T14:13:55;44.13;;;18.63;;
64520;SDS011;50896;46.714;17.322;2022-12-19T14:16:53;42.40;;;18.83;;
64520;SDS011;50896;46.714;17.322;2022-12-19T14:19:24;44.65;;;19.67;;
64520;SDS011;50896;46.714;17.322;2022-12-19T14:21:53;48.17;;;20.90;;
64520;SDS011;50896;46.714;17.322;2022-12-19T14:24:39;49.40;;;20.60;;
64520;SDS011;50896;46.714;17.322;2022-12-19T14:27:10;47.38;;;20.25;;
64520;SDS011;50896;46.714;17.322;2022-12-19T14:30:03;40.30;;;18.58;;
64520;SDS011;50896;46.714;17.322;2022-12-19T14:32:52;47.70;;;20.35;;
64520;SDS011;50896;46.714;17.322;2022-12-19T14:35:44;51.30;;;22.08;;
64520;SDS011;50896;46.714;17.322;2022-12-19T14:38:34;51.92;;;22.13;;
64520;SDS011;50896;46.714;17.322;2022-12-19T14:44:14;53.78;;;21.52;;
64520;SDS011;50896;46.714;17.322;2022-12-19T14:47:03;47.03;;;20.10;;
64520;SDS011;50896;46.714;17.322;2022-12-19T14:49:57;47.03;;;20.65;;
64520;SDS011;50896;46.714;17.322;2022-12-19T14:52:44;49.35;;;20.77;;
64520;SDS011;50896;46.714;17.322;2022-12-19T14:55:35;50.88;;;22.50;;
64520;SDS011;50896;46.714;17.322;2022-12-19T14:58:28;50.90;;;22.25;;
64520;SDS011;50896;46.714;17.322;2022-12-19T15:01:25;49.13;;;21.50;;
64520;SDS011;50896;46.714;17.322;2022-12-19T15:06:50;51.90;;;21.05;;
64520;SDS011;50896;46.714;17.322;2022-12-19T15:09:37;53.03;;;21.48;;
64520;SDS011;50896;46.714;17.322;2022-12-19T15:12:33;49.83;;;21.38;;
64520;SDS011;50896;46.714;17.322;2022-12-19T15:21:00;47.67;;;20.55;;
64520;SDS011;50896;46.714;17.322;2022-12-19T15:23:28;52.05;;;22.67;;
64520;SDS011;50896;46.714;17.322;2022-12-19T15:25:59;52.78;;;23.02;;
64520;SDS011;50896;46.714;17.322;2022-12-19T15:28:36;50.67;;;21.73;;
64520;SDS011;50896;46.714;17.322;2022-12-19T15:31:09;48.92;;;20.75;;
64520;SDS011;50896;46.714;17.322;2022-12-19T15:33:47;53.47;;;22.48;;
64520;SDS011;50896;46.714;17.322;2022-12-19T15:36:34;58.17;;;23.63;;
64520;SDS011;50896;46.714;17.322;2022-12-19T15:39:00;57.13;;;24.35;;
64520;SDS011;50896;46.714;17.322;2022-12-19T15:41:29;57.15;;;24.00;;
64520;SDS011;50896;46.714;17.322;2022-12-19T15:43:56;58.15;;;23.58;;
64520;SDS011;50896;46.714;17.322;2022-12-19T15:46:31;58.25;;;23.67;;
64520;SDS011;50896;46.714;17.322;2022-12-19T15:48:59;61.47;;;26.10;;
64520;SDS011;50896;46.714;17.322;2022-12-19T15:51:26;57.75;;;24.85;;
64520;SDS011;50896;46.714;17.322;2022-12-19T15:53:53;65.90;;;27.15;;
64520;SDS011;50896;46.714;17.322;2022-12-19T15:56:50;61.90;;;25.67;;
64520;SDS011;50896;46.714;17.322;2022-12-19T15:59:35;63.58;;;25.30;;
64520;SDS011;50896;46.714;17.322;2022-12-19T16:02:16;61.17;;;24.80;;
64520;SDS011;50896;46.714;17.322;2022-12-19T16:05:02;59.85;;;25.10;;
64520;SDS011;50896;46.714;17.322;2022-12-19T16:07:30;59.63;;;25.75;;
64520;SDS011;50896;46.714;17.322;2022-12-19T16:09:57;60.67;;;27.48;;
64520;SDS011;50896;46.714;17.322;2022-12-19T16:12:26;64.18;;;28.20;;
64520;SDS011;50896;46.714;17.322;2022-12-19T16:15:02;69.43;;;28.58;;
64520;SDS011;50896;46.714;17.322;2022-12-19T16:17:30;68.40;;;29.20;;
64520;SDS011;50896;46.714;17.322;2022-12-19T16:19:58;64.95;;;27.33;;
64520;SDS011;50896;46.714;17.322;2022-12-19T16:22:26;72.38;;;29.90;;
64520;SDS011;50896;46.714;17.322;2022-12-19T16:24:54;66.47;;;29.35;;
64520;SDS011;50896;46.714;17.322;2022-12-19T16:27:26;65.80;;;29.67;;
64520;SDS011;50896;46.714;17.322;2022-12-19T16:29:57;64.75;;;29.00;;
64520;SDS011;50896;46.714;17.322;2022-12-19T16:32:27;67.57;;;28.23;;
64520;SDS011;50896;46.714;17.322;2022-12-19T16:34:54;68.53;;;29.05;;
64520;SDS011;50896;46.714;17.322;2022-12-19T16:37:21;67.57;;;28.63;;
64520;SDS011;50896;46.714;17.322;2022-12-19T16:39:55;67.80;;;29.95;;
64520;SDS011;50896;46.714;17.322;2022-12-19T16:42:22;70.68;;;28.92;;
64520;SDS011;50896;46.714;17.322;2022-12-19T16:44:49;69.78;;;27.60;;
64520;SDS011;50896;46.714;17.322;2022-12-19T16:47:16;65.85;;;26.88;;
64520;SDS011;50896;46.714;17.322;2022-12-19T16:49:43;63.75;;;27.42;;
64520;SDS011;50896;46.714;17.322;2022-12-19T16:52:10;65.50;;;28.15;;
64520;SDS011;50896;46.714;17.322;2022-12-19T16:54:38;68.10;;;27.70;;
64520;SDS011;50896;46.714;17.322;2022-12-19T16:57:05;68.80;;;30.17;;
64520;SDS011;50896;46.714;17.322;2022-12-19T16:59:41;66.50;;;28.17;;
64520;SDS011;50896;46.714;17.322;2022-12-19T17:04:56;62.92;;;27.65;;
64520;SDS011;50896;46.714;17.322;2022-12-19T17:07:22;65.60;;;26.63;;
64520;SDS011;50896;46.714;17.322;2022-12-19T17:09:49;68.35;;;26.92;;
64520;SDS011;50896;46.714;17.322;2022-12-19T17:12:16;58.55;;;26.38;;
64520;SDS011;50896;46.714;17.322;2022-12-19T17:14:43;61.78;;;26.83;;
64520;SDS011;50896;46.714;17.322;2022-12-19T17:17:12;60.75;;;27.10;;
64520;SDS011;50896;46.714;17.322;2022-12-19T17:22:11;61.47;;;26.17;;